createdAt,value
2018-04-11T00:00:48.612Z,99.90
2018-04-11T00:03:17.000Z,99.90
2018-04-11T00:05:45.273Z,99.90
2018-04-11T00:08:13.751Z,99.90
2018-04-11T00:10:42.003Z,99.90
2018-04-11T00:13:10.309Z,99.90
2018-04-11T00:15:38.578Z,99.90
2018-04-11T00:18:06.865Z,99.90
2018-04-11T00:20:35.243Z,99.90
2018-04-11T00:23:03.527Z,99.90
2018-04-11T00:25:31.794Z,99.90
2018-04-11T00:28:00.086Z,99.90
2018-04-11T00:30:28.459Z,99.90
2018-04-11T00:32:56.759Z,99.90
2018-04-11T00:35:25.787Z,99.90
2018-04-11T00:37:54.088Z,99.90
2018-04-11T00:40:22.358Z,99.90
2018-04-11T00:42:50.756Z,99.90
2018-04-11T00:45:19.031Z,99.90
2018-04-11T00:47:47.310Z,99.90
2018-04-11T00:50:15.616Z,99.90
2018-04-11T00:55:39.838Z,99.90
2018-04-11T00:58:08.272Z,99.90
2018-04-11T01:00:36.547Z,99.90
2018-04-11T01:03:04.843Z,99.90
2018-04-11T01:05:33.123Z,99.90
2018-04-11T01:08:01.391Z,99.90
2018-04-11T01:10:29.704Z,99.90
2018-04-11T01:12:58.760Z,99.90
2018-04-11T01:15:27.038Z,99.90
2018-04-11T01:17:55.408Z,99.90
2018-04-11T01:20:23.690Z,99.90
2018-04-11T01:22:51.960Z,99.90
2018-04-11T01:25:20.343Z,99.90
2018-04-11T01:27:48.714Z,99.90
2018-04-11T01:30:17.019Z,99.90
2018-04-11T01:32:45.285Z,99.90
2018-04-11T01:35:13.607Z,99.90
2018-04-11T01:37:41.869Z,99.90
2018-04-11T01:40:11.027Z,99.90
2018-04-11T01:42:39.291Z,99.90
2018-04-11T01:45:07.575Z,99.90
2018-04-11T01:47:36.615Z,99.90
2018-04-11T01:50:05.685Z,99.90
2018-04-11T01:52:34.077Z,99.90
2018-04-11T01:55:02.434Z,99.90
2018-04-11T01:57:30.715Z,99.90
2018-04-11T01:59:59.008Z,99.90
2018-04-11T02:02:27.364Z,99.90
2018-04-11T02:04:55.663Z,99.90
2018-04-11T02:07:24.041Z,99.90
2018-04-11T02:09:52.347Z,99.90
2018-04-11T02:12:20.619Z,99.90
2018-04-11T02:14:48.934Z,99.90
2018-04-11T02:17:17.190Z,99.90
2018-04-11T02:19:45.508Z,99.90
2018-04-11T02:22:13.804Z,99.90
2018-04-11T02:24:42.171Z,99.90
2018-04-11T02:27:11.239Z,99.90
2018-04-11T02:29:39.516Z,99.90
2018-04-11T02:32:07.861Z,99.90
2018-04-11T02:34:36.108Z,99.90
2018-04-11T02:37:04.403Z,99.90
2018-04-11T02:39:33.450Z,99.90
2018-04-11T02:42:01.739Z,99.90
2018-04-11T02:44:30.822Z,99.90
2018-04-11T02:46:59.131Z,99.90
2018-04-11T02:49:28.154Z,99.90
2018-04-11T02:51:56.457Z,99.90
2018-04-11T02:54:24.744Z,99.90
2018-04-11T02:56:53.044Z,99.90
2018-04-11T02:59:21.306Z,99.90
2018-04-11T03:01:49.693Z,99.90
2018-04-11T03:04:17.978Z,99.90
2018-04-11T03:06:46.283Z,99.90
2018-04-11T03:09:14.615Z,99.90
2018-04-11T03:11:42.918Z,99.90
2018-04-11T03:14:11.970Z,99.90
2018-04-11T03:16:40.369Z,99.90
2018-04-11T03:19:08.640Z,99.90
2018-04-11T03:21:37.041Z,99.90
2018-04-11T03:24:05.319Z,99.90
2018-04-11T03:26:33.605Z,99.90
2018-04-11T03:29:02.651Z,99.90
2018-04-11T03:31:30.923Z,99.90
2018-04-11T03:33:59.332Z,99.90
2018-04-11T03:36:27.587Z,99.90
2018-04-11T03:38:55.903Z,99.90
2018-04-11T03:41:24.197Z,99.90
2018-04-11T03:43:52.594Z,99.90
2018-04-11T03:46:20.958Z,99.90
2018-04-11T03:48:49.237Z,99.90
2018-04-11T03:51:17.503Z,99.90
2018-04-11T03:53:45.890Z,99.90
2018-04-11T03:56:14.270Z,99.90
2018-04-11T03:58:42.627Z,99.90
2018-04-11T04:01:10.896Z,99.90
2018-04-11T04:03:39.200Z,99.90
2018-04-11T04:06:08.239Z,99.90
2018-04-11T04:08:37.399Z,99.90
2018-04-11T04:11:05.681Z,99.90
2018-04-11T04:13:45.885Z,99.90
2018-04-11T04:16:25.881Z,99.90
2018-04-11T04:19:05.955Z,99.90
2018-04-11T04:21:34.235Z,99.90
2018-04-11T04:24:02.560Z,99.90
2018-04-11T04:26:30.849Z,99.90
2018-04-11T04:28:59.255Z,99.90
2018-04-11T04:31:27.534Z,99.90
2018-04-11T04:33:56.008Z,99.90
2018-04-11T04:36:24.387Z,99.90
2018-04-11T04:38:52.676Z,99.90
2018-04-11T04:41:20.961Z,99.90
2018-04-11T04:43:49.259Z,99.90
2018-04-11T04:46:18.343Z,99.90
2018-04-11T04:48:47.410Z,99.90
2018-04-11T04:51:15.694Z,99.90
2018-04-11T04:53:43.984Z,99.90
2018-04-11T04:56:12.276Z,99.90
2018-04-11T04:58:41.367Z,99.90
2018-04-11T05:01:10.409Z,99.90
2018-04-11T05:03:38.685Z,99.90
2018-04-11T05:06:06.997Z,99.90
2018-04-11T05:08:35.269Z,99.90
2018-04-11T05:11:03.647Z,99.90
2018-04-11T05:13:31.924Z,99.90
2018-04-11T05:16:00.217Z,99.90
2018-04-11T05:18:28.495Z,99.90
2018-04-11T05:20:56.795Z,99.90
2018-04-11T05:23:25.083Z,99.90
2018-04-11T05:25:53.398Z,99.90
2018-04-11T05:28:21.676Z,99.90
2018-04-11T05:30:50.004Z,99.90
2018-04-11T05:33:18.344Z,99.90
2018-04-11T05:35:46.635Z,99.90
2018-04-11T05:38:14.916Z,99.90
2018-04-11T05:40:43.233Z,99.90
2018-04-11T05:43:11.503Z,99.90
2018-04-11T05:45:39.805Z,99.90
2018-04-11T05:48:08.084Z,99.90
2018-04-11T05:50:36.384Z,99.90
2018-04-11T05:53:04.727Z,99.90
2018-04-11T05:55:33.762Z,99.90
2018-04-11T05:58:02.029Z,99.90
2018-04-11T06:00:30.417Z,99.90
2018-04-11T06:02:58.706Z,99.90
2018-04-11T06:05:26.998Z,99.90
2018-04-11T06:07:56.067Z,99.90
2018-04-11T06:10:24.443Z,99.90
2018-04-11T06:12:52.723Z,99.90
2018-04-11T06:15:21.048Z,99.90
2018-04-11T06:17:49.382Z,99.90
2018-04-11T06:20:17.705Z,99.90
2018-04-11T06:22:46.797Z,99.90
2018-04-11T06:25:15.035Z,99.90
2018-04-11T06:27:43.334Z,99.90
2018-04-11T06:30:12.412Z,99.90
2018-04-11T06:32:40.712Z,99.90
2018-04-11T06:35:09.902Z,99.90
2018-04-11T06:37:38.265Z,99.90
2018-04-11T06:40:06.635Z,99.90
2018-04-11T06:42:34.935Z,99.90
2018-04-11T06:45:03.297Z,99.90
2018-04-11T06:47:31.689Z,99.90
2018-04-11T06:49:59.985Z,99.90
2018-04-11T06:52:29.034Z,99.90
2018-04-11T06:54:57.329Z,99.90
2018-04-11T06:57:25.618Z,99.90
2018-04-11T06:59:53.890Z,99.90
2018-04-11T07:02:22.959Z,99.90
2018-04-11T07:04:51.227Z,99.90
2018-04-11T07:07:19.519Z,99.90
2018-04-11T07:09:47.807Z,99.90
2018-04-11T07:12:16.183Z,99.90
2018-04-11T07:14:44.457Z,99.90
2018-04-11T07:17:12.762Z,99.90
2018-04-11T07:19:41.053Z,99.90
2018-04-11T07:22:10.101Z,99.90
2018-04-11T07:24:38.385Z,99.90
2018-04-11T07:27:06.774Z,99.90
2018-04-11T07:29:35.048Z,99.90
2018-04-11T07:32:03.342Z,99.90
2018-04-11T07:34:31.617Z,99.90
2018-04-11T07:36:59.983Z,99.90
2018-04-11T07:39:28.350Z,99.90
2018-04-11T07:41:56.641Z,99.90
2018-04-11T07:44:25.022Z,99.90
2018-04-11T07:46:53.307Z,99.90
2018-04-11T07:49:21.603Z,99.90
2018-04-11T07:51:50.634Z,99.90
2018-04-11T07:54:18.948Z,99.90
2018-04-11T07:56:47.201Z,99.90
2018-04-11T07:59:15.500Z,99.90
2018-04-11T08:01:43.880Z,99.90
2018-04-11T08:04:12.179Z,99.90
2018-04-11T08:06:41.227Z,99.90
2018-04-11T08:09:09.633Z,99.90
2018-04-11T08:11:37.906Z,99.90
2018-04-11T08:14:06.197Z,99.90
2018-04-11T08:16:34.564Z,99.90
2018-04-11T08:19:02.841Z,99.90
2018-04-11T08:21:31.109Z,99.90
2018-04-11T08:23:58.931Z,99.90
2018-04-11T08:26:27.203Z,99.90
2018-04-11T08:28:56.263Z,99.90
2018-04-11T08:31:24.538Z,99.90
2018-04-11T08:33:52.839Z,99.90
2018-04-11T08:36:21.896Z,99.90
2018-04-11T08:38:50.196Z,99.90
2018-04-11T08:41:18.671Z,99.90
2018-04-11T08:43:46.925Z,99.90
2018-04-11T08:46:15.339Z,99.90
2018-04-11T08:48:43.701Z,99.90
2018-04-11T08:51:11.996Z,99.90
2018-04-11T08:53:41.042Z,99.90
2018-04-11T08:56:09.330Z,99.90
2018-04-11T08:58:37.606Z,99.90
2018-04-11T09:01:06.011Z,99.90
2018-04-11T09:03:34.298Z,99.90
2018-04-11T09:06:02.581Z,99.90
2018-04-11T09:08:30.857Z,99.90
2018-04-11T09:10:59.149Z,99.90
2018-04-11T09:13:28.222Z,99.90
2018-04-11T09:15:56.507Z,99.90
2018-04-11T09:18:24.784Z,99.90
2018-04-11T09:20:53.071Z,99.90
2018-04-11T09:23:22.115Z,99.90
2018-04-11T09:25:50.418Z,99.90
2018-04-11T09:28:18.695Z,99.90
2018-04-11T09:30:46.987Z,99.90
2018-04-11T09:33:15.336Z,99.90
2018-04-11T09:35:44.453Z,99.90
2018-04-11T09:38:12.739Z,99.90
2018-04-11T09:40:41.033Z,99.90
2018-04-11T09:43:10.075Z,99.90
2018-04-11T09:45:38.484Z,99.90
2018-04-11T09:48:06.863Z,99.90
2018-04-11T09:50:35.134Z,99.90
2018-04-11T09:53:03.411Z,99.90
2018-04-11T09:55:31.707Z,99.90
2018-04-11T09:57:59.992Z,99.90
2018-04-11T10:00:28.372Z,99.90
2018-04-11T10:03:02.386Z,99.90
2018-04-11T10:05:30.912Z,99.90
2018-04-11T10:07:59.172Z,99.90
2018-04-11T10:10:27.578Z,99.90
2018-04-11T10:12:55.946Z,99.90
2018-04-11T10:15:24.207Z,99.90
2018-04-11T10:17:52.500Z,99.90
2018-04-11T10:20:20.982Z,99.90
2018-04-11T10:22:49.270Z,99.90
2018-04-11T10:25:17.639Z,99.90
2018-04-11T10:27:45.925Z,99.90
2018-04-11T10:30:14.313Z,99.90
2018-04-11T10:32:42.777Z,99.90
2018-04-11T10:35:11.061Z,99.90
2018-04-11T10:37:39.339Z,99.90
2018-04-11T10:40:07.610Z,99.90
2018-04-11T10:42:35.986Z,99.90
2018-04-11T10:45:04.360Z,99.90
2018-04-11T10:47:32.747Z,99.90
2018-04-11T10:50:01.011Z,99.90
2018-04-11T10:52:29.335Z,99.90
2018-04-11T10:54:57.700Z,99.90
2018-04-11T10:57:26.001Z,99.90
2018-04-11T10:59:55.033Z,99.90
2018-04-11T11:02:23.501Z,99.90
2018-04-11T11:04:51.878Z,99.90
2018-04-11T11:07:20.168Z,99.90
2018-04-11T11:09:49.204Z,99.90
2018-04-11T11:12:17.515Z,99.90
2018-04-11T11:14:45.786Z,99.90
2018-04-11T11:17:14.061Z,99.90
2018-04-11T11:20:04.177Z,99.90
2018-04-11T11:22:32.487Z,99.90
2018-04-11T11:25:01.528Z,99.90
2018-04-11T11:27:29.828Z,99.90
2018-04-11T11:29:58.086Z,99.90
2018-04-11T11:32:26.374Z,99.90
2018-04-11T11:34:54.667Z,99.90
2018-04-11T11:37:22.951Z,99.90
2018-04-11T11:39:51.237Z,99.90
2018-04-11T11:42:20.279Z,99.90
2018-04-11T11:44:48.593Z,99.90
2018-04-11T11:47:16.868Z,99.90
2018-04-11T11:49:45.254Z,99.90
2018-04-11T11:52:13.523Z,99.90
2018-04-11T11:54:42.004Z,99.90
2018-04-11T11:57:10.262Z,99.90
2018-04-11T11:59:38.555Z,99.90
2018-04-11T12:02:06.834Z,99.90
2018-04-11T12:04:35.113Z,99.90
2018-04-11T12:07:04.896Z,99.90
2018-04-11T12:09:33.195Z,99.90
2018-04-11T12:12:01.463Z,99.90
2018-04-11T12:14:29.872Z,99.90
2018-04-11T12:16:58.133Z,99.90
2018-04-11T12:19:26.474Z,99.90
2018-04-11T12:21:54.703Z,99.90
2018-04-11T12:24:22.994Z,99.90
2018-04-11T12:26:52.031Z,99.90
2018-04-11T12:29:20.337Z,99.90
2018-04-11T12:31:48.617Z,99.90
2018-04-11T12:34:16.991Z,99.90
2018-04-11T12:36:45.263Z,99.90
2018-04-11T12:39:13.554Z,99.90
2018-04-11T12:41:41.932Z,99.90
2018-04-11T12:44:10.208Z,99.90
2018-04-11T12:46:38.486Z,99.90
2018-04-11T12:49:06.774Z,99.90
2018-04-11T12:51:35.064Z,99.90
2018-04-11T12:54:03.350Z,99.90
2018-04-11T12:56:32.391Z,99.90
2018-04-11T12:59:00.664Z,99.90
2018-04-11T13:01:28.963Z,99.90
2018-04-11T13:03:57.243Z,99.90
2018-04-11T13:06:25.514Z,99.90
2018-04-11T13:08:53.799Z,99.90
2018-04-11T13:11:22.179Z,99.90
2018-04-11T13:13:50.454Z,99.90
2018-04-11T13:16:18.936Z,99.90
2018-04-11T13:18:47.213Z,98.90
2018-04-11T13:21:15.513Z,95.90
2018-04-11T13:23:43.776Z,90.60
2018-04-11T13:26:12.103Z,85.30
2018-04-11T13:28:40.362Z,76.50
2018-04-11T13:31:09.520Z,65.80
2018-04-11T13:33:37.791Z,65.70
2018-04-11T13:36:06.171Z,64.30
2018-04-11T13:38:34.456Z,61.80
2018-04-11T13:41:02.876Z,64.70
2018-04-11T13:43:32.620Z,59.60
2018-04-11T13:46:00.927Z,59.60
2018-04-11T13:48:29.298Z,59.00
2018-04-11T13:50:57.595Z,59.30
2018-04-11T13:53:25.905Z,59.00
2018-04-11T13:55:54.936Z,59.50
2018-04-11T13:58:23.232Z,59.50
2018-04-11T14:00:51.496Z,67.40
2018-04-11T14:03:19.896Z,67.50
2018-04-11T14:05:48.164Z,68.50
2018-04-11T14:08:16.520Z,68.30
2018-04-11T14:10:45.534Z,68.50
2018-04-11T14:13:13.834Z,68.50
2018-04-11T14:15:43.632Z,66.30
2018-04-11T14:18:11.924Z,66.20
2018-04-11T14:20:40.963Z,69.30
2018-04-11T14:23:09.251Z,69.30
2018-04-11T14:25:37.527Z,66.50
2018-04-11T14:28:05.848Z,66.50
2018-04-11T14:30:34.882Z,64.10
2018-04-11T14:33:03.182Z,64.10
2018-04-11T14:35:31.438Z,60.90
2018-04-11T14:37:59.755Z,58.60
2018-04-11T14:40:28.040Z,59.80
2018-04-11T14:42:56.378Z,61.30
2018-04-11T14:45:24.641Z,61.50
2018-04-11T14:47:53.707Z,65.50
2018-04-11T14:50:22.063Z,65.40
2018-04-11T14:52:50.371Z,64.60
2018-04-11T14:55:18.647Z,61.90
2018-04-11T14:57:48.437Z,60.60
2018-04-11T15:00:16.716Z,60.50
2018-04-11T15:02:45.011Z,62.00
2018-04-11T15:05:13.295Z,65.60
2018-04-11T15:07:42.331Z,66.70
2018-04-11T15:10:10.851Z,66.70
2018-04-11T15:12:39.134Z,69.60
2018-04-11T15:15:07.433Z,72.10
2018-04-11T15:17:36.478Z,68.90
2018-04-11T15:20:04.780Z,68.90
2018-04-11T15:22:33.041Z,67.50
2018-04-11T15:25:01.455Z,67.70
2018-04-11T15:27:29.783Z,68.30
2018-04-11T15:29:58.917Z,66.40
2018-04-11T15:32:27.170Z,66.40
2018-04-11T15:34:55.454Z,65.20
2018-04-11T15:37:23.731Z,66.20
2018-04-11T15:39:52.140Z,65.70
2018-04-11T15:42:21.174Z,66.40
2018-04-11T15:44:49.475Z,66.40
2018-04-11T15:47:17.747Z,66.10
2018-04-11T15:49:46.051Z,64.50
2018-04-11T15:52:14.434Z,64.90
2018-04-11T15:54:42.802Z,64.40
2018-04-11T15:57:11.083Z,64.20
2018-04-11T15:59:39.355Z,64.20
2018-04-11T16:02:07.752Z,65.20
2018-04-11T16:04:36.022Z,65.90
2018-04-11T16:07:04.315Z,66.60
2018-04-11T16:09:32.676Z,65.80
2018-04-11T16:12:01.068Z,66.00
2018-04-11T16:14:30.875Z,67.80
2018-04-11T16:16:59.167Z,67.90
2018-04-11T16:19:28.338Z,70.20
2018-04-11T16:21:56.717Z,70.10
2018-04-11T16:24:25.001Z,74.70
2018-04-11T16:26:53.285Z,75.10
2018-04-11T16:29:21.682Z,77.80
2018-04-11T16:31:50.007Z,81.80
2018-04-11T16:34:18.360Z,87.40
2018-04-11T16:36:46.691Z,90.90
2018-04-11T16:39:15.071Z,92.60
2018-04-11T16:41:43.424Z,93.30
2018-04-11T16:44:11.683Z,94.70
2018-04-11T16:46:40.005Z,95.50
2018-04-11T16:49:08.279Z,95.80
2018-04-11T16:51:36.661Z,96.80
2018-04-11T16:54:04.935Z,98.40
2018-04-11T16:56:33.418Z,98.50
2018-04-11T16:59:01.694Z,99.90
2018-04-11T17:01:30.075Z,99.90
2018-04-11T17:03:58.337Z,99.90
2018-04-11T17:06:26.602Z,99.90
2018-04-11T17:08:55.032Z,99.90
2018-04-11T17:11:23.298Z,99.90
2018-04-11T17:13:51.653Z,99.90
2018-04-11T17:16:19.923Z,99.90
2018-04-11T17:18:48.236Z,99.90
2018-04-11T17:21:28.478Z,99.90
2018-04-11T17:27:08.155Z,99.90
2018-04-11T17:29:48.352Z,99.90
2018-04-11T17:32:16.656Z,99.90
2018-04-11T17:34:44.931Z,99.90
2018-04-11T17:37:13.311Z,99.90
2018-04-11T17:39:41.588Z,99.90
2018-04-11T17:42:10.190Z,99.90
2018-04-11T17:44:38.463Z,99.90
2018-04-11T17:47:06.742Z,99.90
2018-04-11T17:49:35.029Z,99.90
2018-04-11T17:52:03.291Z,99.90
2018-04-11T17:54:31.615Z,99.90
2018-04-11T17:57:00.657Z,99.90
2018-04-11T17:59:28.972Z,99.90
2018-04-11T18:01:57.246Z,99.90
2018-04-11T18:04:25.548Z,99.90
2018-04-11T18:06:54.596Z,99.90
2018-04-11T18:09:22.893Z,99.90
2018-04-11T18:11:51.143Z,99.90
2018-04-11T18:14:19.540Z,99.90
2018-04-11T18:16:47.828Z,99.90
2018-04-11T18:19:16.108Z,99.90
2018-04-11T18:21:45.445Z,99.90
2018-04-11T18:24:13.885Z,99.90
2018-04-11T18:26:42.919Z,99.90
2018-04-11T18:29:11.215Z,99.90
2018-04-11T18:31:39.491Z,99.90
2018-04-11T18:34:07.781Z,99.90
2018-04-11T18:36:36.055Z,99.90
2018-04-11T18:39:04.356Z,99.90
2018-04-11T18:41:32.617Z,99.90
2018-04-11T18:44:00.931Z,99.90
2018-04-11T18:46:29.277Z,99.90
2018-04-11T18:48:57.584Z,99.90
2018-04-11T18:51:25.901Z,99.90
2018-04-11T18:53:54.219Z,99.90
2018-04-11T18:56:22.515Z,99.90
2018-04-11T18:58:50.790Z,99.90
2018-04-11T19:01:19.089Z,99.90
2018-04-11T19:03:47.365Z,99.90
2018-04-11T19:06:16.430Z,99.90
2018-04-11T19:08:44.705Z,99.90
2018-04-11T19:11:13.101Z,99.90
2018-04-11T19:13:41.460Z,99.90
2018-04-11T19:16:09.863Z,99.90
2018-04-11T19:18:38.153Z,99.90
2018-04-11T19:21:07.219Z,99.90
2018-04-11T19:23:35.466Z,99.90
2018-04-11T19:26:03.779Z,99.90
2018-04-11T19:28:32.154Z,99.90
2018-04-11T19:31:00.448Z,99.90
2018-04-11T19:33:28.723Z,99.90
2018-04-11T19:35:57.015Z,99.90
2018-04-11T19:38:26.075Z,99.90
2018-04-11T19:40:54.380Z,99.90
2018-04-11T19:43:22.653Z,99.90
2018-04-11T19:45:50.952Z,99.90
2018-04-11T19:48:19.993Z,99.90
2018-04-11T19:50:48.308Z,99.90
2018-04-11T19:53:16.575Z,99.90
2018-04-11T19:55:44.878Z,99.90
2018-04-11T19:58:13.909Z,99.90
2018-04-11T20:00:42.208Z,99.90
2018-04-11T20:03:10.501Z,99.90
2018-04-11T20:05:38.838Z,99.90
2018-04-11T20:08:07.095Z,99.90
2018-04-11T20:10:35.414Z,99.90
2018-04-11T20:13:03.679Z,99.90
2018-04-11T20:15:32.265Z,99.90
2018-04-11T20:18:00.560Z,99.90
2018-04-11T20:20:28.830Z,99.90
2018-04-11T20:22:57.230Z,99.90
2018-04-11T20:25:25.600Z,99.90
2018-04-11T20:27:53.886Z,99.90
2018-04-11T20:30:22.171Z,99.90
2018-04-11T20:32:50.477Z,99.90
2018-04-11T20:35:19.515Z,99.90
2018-04-11T20:37:47.819Z,99.90
2018-04-11T20:40:16.096Z,99.90
2018-04-11T20:42:44.405Z,99.90
2018-04-11T20:45:12.839Z,99.90
2018-04-11T20:47:41.114Z,99.90
2018-04-11T20:50:09.495Z,99.90
2018-04-11T20:52:37.835Z,99.90
2018-04-11T20:55:06.115Z,99.90
2018-04-11T20:57:34.413Z,99.90
2018-04-11T21:00:02.684Z,99.90
2018-04-11T21:02:30.999Z,99.90
2018-04-11T21:04:59.369Z,99.90
2018-04-11T21:07:27.673Z,99.90
2018-04-11T21:09:55.940Z,99.90
2018-04-11T21:12:24.260Z,99.90
2018-04-11T21:14:52.521Z,99.90
2018-04-11T21:17:20.851Z,99.90
2018-04-11T21:19:49.172Z,99.90
2018-04-11T21:22:18.229Z,99.90
2018-04-11T21:24:46.605Z,99.90
2018-04-11T21:27:14.880Z,99.90
2018-04-11T21:29:43.167Z,99.90
2018-04-11T21:32:11.475Z,99.90
2018-04-11T21:34:40.526Z,99.90
2018-04-11T21:37:08.833Z,99.90
2018-04-11T21:39:37.189Z,99.90
2018-04-11T21:42:05.465Z,99.90
2018-04-11T21:44:33.847Z,99.90
2018-04-11T21:47:02.127Z,99.90
2018-04-11T21:49:30.504Z,99.90
2018-04-11T21:51:58.765Z,99.90
2018-04-11T21:54:27.186Z,99.90
2018-04-11T21:56:55.455Z,99.90
2018-04-11T21:59:23.820Z,99.90
2018-04-11T22:01:52.095Z,99.90
2018-04-11T22:04:20.400Z,99.90
2018-04-11T22:06:49.445Z,99.90
2018-04-11T22:09:17.761Z,99.90
2018-04-11T22:11:46.125Z,99.90
2018-04-11T22:14:14.420Z,99.90
2018-04-11T22:16:42.694Z,99.90
2018-04-11T22:19:11.055Z,99.90
2018-04-11T22:21:39.369Z,99.90
2018-04-11T22:24:08.436Z,99.90
2018-04-11T22:26:36.713Z,99.90
2018-04-11T22:29:05.020Z,99.90
2018-04-11T22:31:34.063Z,99.90
2018-04-11T22:34:02.375Z,99.90
2018-04-11T22:36:30.788Z,99.90
2018-04-11T22:38:59.088Z,99.90
2018-04-11T22:41:27.396Z,99.90
2018-04-11T22:43:55.693Z,99.90
2018-04-11T22:46:23.967Z,99.90
2018-04-11T22:48:52.258Z,99.90
2018-04-11T22:51:21.297Z,99.90
2018-04-11T22:53:49.588Z,99.90
2018-04-11T22:56:17.854Z,99.90
2018-04-11T22:58:46.156Z,99.90
2018-04-11T23:01:14.472Z,99.90
2018-04-11T23:06:15.421Z,99.90
2018-04-11T23:08:43.690Z,99.90
2018-04-11T23:11:12.000Z,99.90
2018-04-11T23:13:40.277Z,99.90
2018-04-11T23:16:08.561Z,99.90
2018-04-11T23:18:36.836Z,99.90
2018-04-11T23:21:05.170Z,99.90
2018-04-11T23:23:33.435Z,99.90
2018-04-11T23:26:01.932Z,99.90
2018-04-11T23:28:30.307Z,99.90
2018-04-11T23:30:58.600Z,99.90
2018-04-11T23:33:26.887Z,99.90
2018-04-11T23:35:55.189Z,99.90
2018-04-11T23:38:23.479Z,99.90
2018-04-11T23:40:51.771Z,99.90
2018-04-11T23:43:20.083Z,99.90
2018-04-11T23:45:48.378Z,99.90
2018-04-11T23:48:17.463Z,99.90
2018-04-11T23:50:46.526Z,99.90
2018-04-11T23:53:14.801Z,99.90
2018-04-11T23:55:43.067Z,99.90
2018-04-11T23:58:11.383Z,99.90
